sensor_id;sensor_type;location;lat;lon;timestamp;temperature;humidity
23681;DHT22;62915;50.832;4.462;2023-05-07T00:00:12;18.10;99.90
23681;DHT22;62915;50.832;4.462;2023-05-07T00:02:41;18.00;99.90
23681;DHT22;62915;50.832;4.462;2023-05-07T00:05:07;18.00;99.90
23681;DHT22;62915;50.832;4.462;2023-05-07T00:07:33;18.00;99.90
23681;DHT22;62915;50.832;4.462;2023-05-07T00:09:58;18.00;99.90
23681;DHT22;62915;50.832;4.462;2023-05-07T00:12:24;18.00;99.90
23681;DHT22;62915;50.832;4.462;2023-05-07T00:14:50;18.00;99.90
23681;DHT22;62915;50.832;4.462;2023-05-07T00:17:16;17.90;99.90
23681;DHT22;62915;50.832;4.462;2023-05-07T00:19:42;17.90;99.90
23681;DHT22;62915;50.832;4.462;2023-05-07T00:22:08;18.00;99.90
23681;DHT22;62915;50.832;4.462;2023-05-07T00:24:34;18.00;99.90
23681;DHT22;62915;50.832;4.462;2023-05-07T00:26:59;18.10;99.90
23681;DHT22;62915;50.832;4.462;2023-05-07T00:29:25;18.00;99.90
23681;DHT22;62915;50.832;4.462;2023-05-07T00:31:51;17.90;99.90
23681;DHT22;62915;50.832;4.462;2023-05-07T00:34:19;18.00;99.90
23681;DHT22;62915;50.832;4.462;2023-05-07T00:36:45;18.00;99.90
23681;DHT22;62915;50.832;4.462;2023-05-07T00:39:11;18.00;99.90
23681;DHT22;62915;50.832;4.462;2023-05-07T00:41:37;18.00;99.90
23681;DHT22;62915;50.832;4.462;2023-05-07T00:44:03;18.00;99.90
23681;DHT22;62915;50.832;4.462;2023-05-07T00:46:30;17.80;99.90
23681;DHT22;62915;50.832;4.462;2023-05-07T00:48:56;17.90;99.90
23681;DHT22;62915;50.832;4.462;2023-05-07T00:51:23;17.90;99.90
23681;DHT22;62915;50.832;4.462;2023-05-07T00:53:50;18.00;99.90
23681;DHT22;62915;50.832;4.462;2023-05-07T00:56:16;18.10;99.90
23681;DHT22;62915;50.832;4.462;2023-05-07T00:58:42;18.10;99.90
23681;DHT22;62915;50.832;4.462;2023-05-07T01:01:08;18.10;99.90
23681;DHT22;62915;50.832;4.462;2023-05-07T01:03:34;18.10;99.90
23681;DHT22;62915;50.832;4.462;2023-05-07T01:06:02;18.10;99.90
23681;DHT22;62915;50.832;4.462;2023-05-07T01:08:28;18.10;99.90
23681;DHT22;62915;50.832;4.462;2023-05-07T01:10:56;18.10;99.90
23681;DHT22;62915;50.832;4.462;2023-05-07T01:13:22;18.10;99.90
23681;DHT22;62915;50.832;4.462;2023-05-07T01:15:49;18.10;99.90
23681;DHT22;62915;50.832;4.462;2023-05-07T01:18:15;18.10;99.90
23681;DHT22;62915;50.832;4.462;2023-05-07T01:20:41;18.00;99.90
23681;DHT22;62915;50.832;4.462;2023-05-07T01:23:07;18.00;99.90
23681;DHT22;62915;50.832;4.462;2023-05-07T01:25:34;18.00;99.90
23681;DHT22;62915;50.832;4.462;2023-05-07T01:28:00;18.00;99.90
23681;DHT22;62915;50.832;4.462;2023-05-07T01:30:27;17.90;99.90
23681;DHT22;62915;50.832;4.462;2023-05-07T01:33:04;18.00;99.90
23681;DHT22;62915;50.832;4.462;2023-05-07T01:35:43;17.90;99.90
23681;DHT22;62915;50.832;4.462;2023-05-07T01:38:09;17.90;99.90
23681;DHT22;62915;50.832;4.462;2023-05-07T01:40:35;17.90;99.90
23681;DHT22;62915;50.832;4.462;2023-05-07T01:43:02;17.90;99.90
23681;DHT22;62915;50.832;4.462;2023-05-07T01:45:30;17.80;99.90
23681;DHT22;62915;50.832;4.462;2023-05-07T01:47:56;17.80;99.90
23681;DHT22;62915;50.832;4.462;2023-05-07T01:50:23;17.80;99.90
23681;DHT22;62915;50.832;4.462;2023-05-07T01:52:50;17.80;99.90
23681;DHT22;62915;50.832;4.462;2023-05-07T01:55:16;17.70;99.90
23681;DHT22;62915;50.832;4.462;2023-05-07T01:57:42;17.70;99.90
23681;DHT22;62915;50.832;4.462;2023-05-07T02:00:08;17.80;99.90
23681;DHT22;62915;50.832;4.462;2023-05-07T02:02:35;17.80;99.90
23681;DHT22;62915;50.832;4.462;2023-05-07T02:05:01;17.80;99.90
23681;DHT22;62915;50.832;4.462;2023-05-07T02:07:27;17.70;99.90
23681;DHT22;62915;50.832;4.462;2023-05-07T02:09:53;17.70;99.90
23681;DHT22;62915;50.832;4.462;2023-05-07T02:12:21;17.60;99.90
23681;DHT22;62915;50.832;4.462;2023-05-07T02:14:47;17.60;99.90
23681;DHT22;62915;50.832;4.462;2023-05-07T02:17:12;17.60;99.90
23681;DHT22;62915;50.832;4.462;2023-05-07T02:19:38;17.60;99.90
23681;DHT22;62915;50.832;4.462;2023-05-07T02:22:04;17.60;99.90
23681;DHT22;62915;50.832;4.462;2023-05-07T02:24:30;17.60;99.90
23681;DHT22;62915;50.832;4.462;2023-05-07T02:26:55;17.50;99.90
23681;DHT22;62915;50.832;4.462;2023-05-07T02:29:21;17.50;99.90
23681;DHT22;62915;50.832;4.462;2023-05-07T02:31:47;17.40;99.90
23681;DHT22;62915;50.832;4.462;2023-05-07T02:34:17;17.40;99.90
23681;DHT22;62915;50.832;4.462;2023-05-07T02:36:43;17.40;99.90
23681;DHT22;62915;50.832;4.462;2023-05-07T02:39:08;17.40;99.90
23681;DHT22;62915;50.832;4.462;2023-05-07T02:41:34;17.40;99.90
23681;DHT22;62915;50.832;4.462;2023-05-07T02:44:00;17.30;99.90
23681;DHT22;62915;50.832;4.462;2023-05-07T02:46:26;17.30;99.90
23681;DHT22;62915;50.832;4.462;2023-05-07T02:48:51;17.30;99.90
23681;DHT22;62915;50.832;4.462;2023-05-07T02:51:21;17.30;99.90
23681;DHT22;62915;50.832;4.462;2023-05-07T02:53:47;17.20;99.90
23681;DHT22;62915;50.832;4.462;2023-05-07T02:56:13;17.20;99.90
23681;DHT22;62915;50.832;4.462;2023-05-07T02:58:39;17.20;99.90
23681;DHT22;62915;50.832;4.462;2023-05-07T03:01:05;17.10;99.90
23681;DHT22;62915;50.832;4.462;2023-05-07T03:03:31;17.10;99.90
23681;DHT22;62915;50.832;4.462;2023-05-07T03:05:57;17.00;99.90
23681;DHT22;62915;50.832;4.462;2023-05-07T03:08:24;17.00;99.90
23681;DHT22;62915;50.832;4.462;2023-05-07T03:10:50;17.00;99.90
23681;DHT22;62915;50.832;4.462;2023-05-07T03:13:16;17.00;99.90
23681;DHT22;62915;50.832;4.462;2023-05-07T03:15:42;17.00;99.90
23681;DHT22;62915;50.832;4.462;2023-05-07T03:18:08;17.00;99.90
23681;DHT22;62915;50.832;4.462;2023-05-07T03:20:34;17.00;99.90
23681;DHT22;62915;50.832;4.462;2023-05-07T03:23:00;17.00;99.90
23681;DHT22;62915;50.832;4.462;2023-05-07T03:25:25;17.00;99.90
23681;DHT22;62915;50.832;4.462;2023-05-07T03:27:51;17.00;99.90
23681;DHT22;62915;50.832;4.462;2023-05-07T03:30:17;17.00;99.90
23681;DHT22;62915;50.832;4.462;2023-05-07T03:32:43;16.90;99.90
23681;DHT22;62915;50.832;4.462;2023-05-07T03:35:09;17.00;99.90
23681;DHT22;62915;50.832;4.462;2023-05-07T03:37:35;17.00;99.90
23681;DHT22;62915;50.832;4.462;2023-05-07T03:40:01;17.00;99.90
23681;DHT22;62915;50.832;4.462;2023-05-07T03:42:28;17.00;99.90
23681;DHT22;62915;50.832;4.462;2023-05-07T03:44:54;17.00;99.90
23681;DHT22;62915;50.832;4.462;2023-05-07T03:47:20;17.00;99.90
23681;DHT22;62915;50.832;4.462;2023-05-07T03:49:45;17.00;99.90
23681;DHT22;62915;50.832;4.462;2023-05-07T03:52:11;17.00;99.90
23681;DHT22;62915;50.832;4.462;2023-05-07T03:54:37;17.00;99.90
23681;DHT22;62915;50.832;4.462;2023-05-07T03:57:03;17.00;99.90
23681;DHT22;62915;50.832;4.462;2023-05-07T03:59:28;17.00;99.90
23681;DHT22;62915;50.832;4.462;2023-05-07T04:01:54;17.00;99.90
23681;DHT22;62915;50.832;4.462;2023-05-07T04:04:20;17.00;99.90
23681;DHT22;62915;50.832;4.462;2023-05-07T04:06:46;17.00;99.90
23681;DHT22;62915;50.832;4.462;2023-05-07T04:09:12;17.00;99.90
23681;DHT22;62915;50.832;4.462;2023-05-07T04:11:38;17.00;99.90
23681;DHT22;62915;50.832;4.462;2023-05-07T04:14:06;16.90;99.90
23681;DHT22;62915;50.832;4.462;2023-05-07T04:16:31;16.90;99.90
23681;DHT22;62915;50.832;4.462;2023-05-07T04:18:57;16.90;99.90
23681;DHT22;62915;50.832;4.462;2023-05-07T04:21:23;16.90;99.90
23681;DHT22;62915;50.832;4.462;2023-05-07T04:23:49;16.90;99.90
23681;DHT22;62915;50.832;4.462;2023-05-07T04:26:15;17.00;99.90
23681;DHT22;62915;50.832;4.462;2023-05-07T04:28:41;16.90;99.90
23681;DHT22;62915;50.832;4.462;2023-05-07T04:31:07;16.90;99.90
23681;DHT22;62915;50.832;4.462;2023-05-07T04:33:33;17.00;99.90
23681;DHT22;62915;50.832;4.462;2023-05-07T04:36:03;16.90;99.90
23681;DHT22;62915;50.832;4.462;2023-05-07T04:38:30;17.00;99.90
23681;DHT22;62915;50.832;4.462;2023-05-07T04:40:57;17.00;99.90
23681;DHT22;62915;50.832;4.462;2023-05-07T04:43:23;17.00;99.90
23681;DHT22;62915;50.832;4.462;2023-05-07T04:45:52;17.10;99.90
23681;DHT22;62915;50.832;4.462;2023-05-07T04:48:18;17.00;99.90
23681;DHT22;62915;50.832;4.462;2023-05-07T04:50:51;17.00;99.90
23681;DHT22;62915;50.832;4.462;2023-05-07T04:53:17;17.00;99.90
23681;DHT22;62915;50.832;4.462;2023-05-07T04:55:43;16.90;99.90
23681;DHT22;62915;50.832;4.462;2023-05-07T04:58:10;17.00;99.90
23681;DHT22;62915;50.832;4.462;2023-05-07T05:00:36;17.00;99.90
23681;DHT22;62915;50.832;4.462;2023-05-07T05:03:02;17.00;99.90
23681;DHT22;62915;50.832;4.462;2023-05-07T05:05:28;17.00;99.90
23681;DHT22;62915;50.832;4.462;2023-05-07T05:07:53;17.00;99.90
23681;DHT22;62915;50.832;4.462;2023-05-07T05:10:19;17.00;99.90
23681;DHT22;62915;50.832;4.462;2023-05-07T05:12:45;17.00;99.90
23681;DHT22;62915;50.832;4.462;2023-05-07T05:15:14;17.10;99.90
23681;DHT22;62915;50.832;4.462;2023-05-07T05:17:41;17.10;99.90
23681;DHT22;62915;50.832;4.462;2023-05-07T05:20:07;17.10;99.90
23681;DHT22;62915;50.832;4.462;2023-05-07T05:22:35;17.20;99.90
23681;DHT22;62915;50.832;4.462;2023-05-07T05:25:00;17.10;99.90
23681;DHT22;62915;50.832;4.462;2023-05-07T05:27:26;17.20;99.90
23681;DHT22;62915;50.832;4.462;2023-05-07T05:29:52;17.20;99.90
23681;DHT22;62915;50.832;4.462;2023-05-07T05:32:18;17.30;99.90
23681;DHT22;62915;50.832;4.462;2023-05-07T05:34:44;17.30;99.90
23681;DHT22;62915;50.832;4.462;2023-05-07T05:37:09;17.30;99.90
23681;DHT22;62915;50.832;4.462;2023-05-07T05:39:36;17.30;99.90
23681;DHT22;62915;50.832;4.462;2023-05-07T05:42:02;17.30;99.90
23681;DHT22;62915;50.832;4.462;2023-05-07T05:44:27;17.40;99.90
23681;DHT22;62915;50.832;4.462;2023-05-07T05:46:53;17.30;99.90
23681;DHT22;62915;50.832;4.462;2023-05-07T05:49:24;17.40;99.90
23681;DHT22;62915;50.832;4.462;2023-05-07T05:51:50;17.40;99.90
23681;DHT22;62915;50.832;4.462;2023-05-07T05:54:16;17.40;99.90
23681;DHT22;62915;50.832;4.462;2023-05-07T05:56:42;17.50;99.90
23681;DHT22;62915;50.832;4.462;2023-05-07T05:59:08;17.50;99.90
23681;DHT22;62915;50.832;4.462;2023-05-07T06:01:34;17.60;99.90
23681;DHT22;62915;50.832;4.462;2023-05-07T06:03:59;17.60;99.90
23681;DHT22;62915;50.832;4.462;2023-05-07T06:06:25;17.60;99.90
23681;DHT22;62915;50.832;4.462;2023-05-07T06:08:51;17.50;99.90
23681;DHT22;62915;50.832;4.462;2023-05-07T06:11:17;17.60;99.90
23681;DHT22;62915;50.832;4.462;2023-05-07T06:13:43;17.50;99.90
23681;DHT22;62915;50.832;4.462;2023-05-07T06:16:08;17.60;99.90
23681;DHT22;62915;50.832;4.462;2023-05-07T06:18:34;17.40;99.90
23681;DHT22;62915;50.832;4.462;2023-05-07T06:21:01;17.40;99.90
23681;DHT22;62915;50.832;4.462;2023-05-07T06:23:27;17.40;99.90
23681;DHT22;62915;50.832;4.462;2023-05-07T06:25:53;17.30;99.90
23681;DHT22;62915;50.832;4.462;2023-05-07T06:28:19;17.20;99.90
23681;DHT22;62915;50.832;4.462;2023-05-07T06:30:45;17.30;99.90
23681;DHT22;62915;50.832;4.462;2023-05-07T06:33:11;17.20;99.90
23681;DHT22;62915;50.832;4.462;2023-05-07T06:35:36;17.20;99.90
23681;DHT22;62915;50.832;4.462;2023-05-07T06:38:02;17.20;99.90
23681;DHT22;62915;50.832;4.462;2023-05-07T06:40:28;17.20;99.90
23681;DHT22;62915;50.832;4.462;2023-05-07T06:42:54;17.20;99.90
23681;DHT22;62915;50.832;4.462;2023-05-07T06:45:20;17.30;99.90
23681;DHT22;62915;50.832;4.462;2023-05-07T06:47:46;17.30;99.90
23681;DHT22;62915;50.832;4.462;2023-05-07T06:50:12;17.30;99.90
23681;DHT22;62915;50.832;4.462;2023-05-07T06:52:38;17.40;99.90
23681;DHT22;62915;50.832;4.462;2023-05-07T06:55:04;17.40;99.90
23681;DHT22;62915;50.832;4.462;2023-05-07T06:57:30;17.40;99.90
23681;DHT22;62915;50.832;4.462;2023-05-07T06:59:56;17.30;99.90
23681;DHT22;62915;50.832;4.462;2023-05-07T07:02:21;17.30;99.90
23681;DHT22;62915;50.832;4.462;2023-05-07T07:04:47;17.40;99.90
23681;DHT22;62915;50.832;4.462;2023-05-07T07:07:13;17.40;99.90
23681;DHT22;62915;50.832;4.462;2023-05-07T07:09:38;17.30;99.90
23681;DHT22;62915;50.832;4.462;2023-05-07T07:12:04;17.30;99.90
23681;DHT22;62915;50.832;4.462;2023-05-07T07:14:30;17.30;99.90
23681;DHT22;62915;50.832;4.462;2023-05-07T07:16:56;17.30;99.90
23681;DHT22;62915;50.832;4.462;2023-05-07T07:19:22;17.30;99.90
23681;DHT22;62915;50.832;4.462;2023-05-07T07:21:47;17.30;99.90
23681;DHT22;62915;50.832;4.462;2023-05-07T07:24:14;17.20;99.90
23681;DHT22;62915;50.832;4.462;2023-05-07T07:26:45;17.20;99.90
23681;DHT22;62915;50.832;4.462;2023-05-07T07:29:10;17.20;99.90
23681;DHT22;62915;50.832;4.462;2023-05-07T07:31:36;17.20;99.90
23681;DHT22;62915;50.832;4.462;2023-05-07T07:34:02;17.30;99.90
23681;DHT22;62915;50.832;4.462;2023-05-07T07:36:28;17.30;99.90
23681;DHT22;62915;50.832;4.462;2023-05-07T07:38:54;17.30;99.90
23681;DHT22;62915;50.832;4.462;2023-05-07T07:41:19;17.40;99.90
23681;DHT22;62915;50.832;4.462;2023-05-07T07:43:45;17.50;99.90
23681;DHT22;62915;50.832;4.462;2023-05-07T07:46:12;17.60;99.90
23681;DHT22;62915;50.832;4.462;2023-05-07T07:48:38;17.50;99.90
23681;DHT22;62915;50.832;4.462;2023-05-07T07:51:04;17.50;99.90
23681;DHT22;62915;50.832;4.462;2023-05-07T07:53:30;17.40;99.90
23681;DHT22;62915;50.832;4.462;2023-05-07T07:55:56;17.50;99.90
23681;DHT22;62915;50.832;4.462;2023-05-07T07:58:22;17.40;99.90
23681;DHT22;62915;50.832;4.462;2023-05-07T08:00:48;17.40;99.90
23681;DHT22;62915;50.832;4.462;2023-05-07T08:03:14;17.40;99.90
23681;DHT22;62915;50.832;4.462;2023-05-07T08:05:42;17.40;99.90
23681;DHT22;62915;50.832;4.462;2023-05-07T08:08:08;17.40;99.90
23681;DHT22;62915;50.832;4.462;2023-05-07T08:10:35;17.50;99.90
23681;DHT22;62915;50.832;4.462;2023-05-07T08:13:04;17.40;99.90
23681;DHT22;62915;50.832;4.462;2023-05-07T08:15:30;17.20;99.90
23681;DHT22;62915;50.832;4.462;2023-05-07T08:17:56;17.30;99.90
23681;DHT22;62915;50.832;4.462;2023-05-07T08:20:25;17.40;99.90
23681;DHT22;62915;50.832;4.462;2023-05-07T08:22:51;17.70;99.90
23681;DHT22;62915;50.832;4.462;2023-05-07T08:25:17;17.60;99.90
23681;DHT22;62915;50.832;4.462;2023-05-07T08:27:43;17.50;99.90
23681;DHT22;62915;50.832;4.462;2023-05-07T08:30:10;17.60;99.90
23681;DHT22;62915;50.832;4.462;2023-05-07T08:32:36;17.50;99.90
23681;DHT22;62915;50.832;4.462;2023-05-07T08:35:02;17.40;99.90
23681;DHT22;62915;50.832;4.462;2023-05-07T08:37:28;17.40;99.90
23681;DHT22;62915;50.832;4.462;2023-05-07T08:39:54;17.30;99.90
23681;DHT22;62915;50.832;4.462;2023-05-07T08:42:21;17.40;99.90
23681;DHT22;62915;50.832;4.462;2023-05-07T08:44:51;17.40;99.90
23681;DHT22;62915;50.832;4.462;2023-05-07T08:47:19;17.40;99.90
23681;DHT22;62915;50.832;4.462;2023-05-07T08:49:45;17.40;99.90
23681;DHT22;62915;50.832;4.462;2023-05-07T08:52:12;17.50;99.90
23681;DHT22;62915;50.832;4.462;2023-05-07T08:54:38;17.40;99.90
23681;DHT22;62915;50.832;4.462;2023-05-07T08:57:04;17.50;99.90
23681;DHT22;62915;50.832;4.462;2023-05-07T08:59:30;17.50;99.90
23681;DHT22;62915;50.832;4.462;2023-05-07T09:01:56;17.50;99.90
23681;DHT22;62915;50.832;4.462;2023-05-07T09:04:22;17.60;99.90
23681;DHT22;62915;50.832;4.462;2023-05-07T09:06:47;17.70;99.90
23681;DHT22;62915;50.832;4.462;2023-05-07T09:09:17;17.70;99.90
23681;DHT22;62915;50.832;4.462;2023-05-07T09:11:46;17.80;99.90
23681;DHT22;62915;50.832;4.462;2023-05-07T09:14:12;17.90;99.90
23681;DHT22;62915;50.832;4.462;2023-05-07T09:16:38;17.90;99.90
23681;DHT22;62915;50.832;4.462;2023-05-07T09:19:04;17.80;99.90
23681;DHT22;62915;50.832;4.462;2023-05-07T09:21:30;17.40;99.90
23681;DHT22;62915;50.832;4.462;2023-05-07T09:23:56;17.50;99.90
23681;DHT22;62915;50.832;4.462;2023-05-07T09:26:22;17.50;99.90
23681;DHT22;62915;50.832;4.462;2023-05-07T09:28:48;17.70;99.90
23681;DHT22;62915;50.832;4.462;2023-05-07T09:31:14;17.80;99.90
23681;DHT22;62915;50.832;4.462;2023-05-07T09:33:40;17.90;99.90
23681;DHT22;62915;50.832;4.462;2023-05-07T09:36:07;18.00;99.90
23681;DHT22;62915;50.832;4.462;2023-05-07T09:38:34;18.10;99.90
23681;DHT22;62915;50.832;4.462;2023-05-07T09:43:32;18.20;99.90
23681;DHT22;62915;50.832;4.462;2023-05-07T09:46:12;18.20;99.90
23681;DHT22;62915;50.832;4.462;2023-05-07T09:48:39;18.20;99.90
23681;DHT22;62915;50.832;4.462;2023-05-07T09:51:32;18.10;99.90
23681;DHT22;62915;50.832;4.462;2023-05-07T09:53:57;18.20;99.90
23681;DHT22;62915;50.832;4.462;2023-05-07T09:56:25;18.10;99.90
23681;DHT22;62915;50.832;4.462;2023-05-07T09:58:54;18.10;99.90
23681;DHT22;62915;50.832;4.462;2023-05-07T10:01:21;18.10;99.90
23681;DHT22;62915;50.832;4.462;2023-05-07T10:03:49;18.10;99.90
23681;DHT22;62915;50.832;4.462;2023-05-07T10:06:17;18.20;99.90
23681;DHT22;62915;50.832;4.462;2023-05-07T10:08:43;18.20;99.90
23681;DHT22;62915;50.832;4.462;2023-05-07T10:11:09;18.20;99.90
23681;DHT22;62915;50.832;4.462;2023-05-07T10:13:35;18.20;99.90
23681;DHT22;62915;50.832;4.462;2023-05-07T10:16:04;18.20;99.90
23681;DHT22;62915;50.832;4.462;2023-05-07T10:18:33;18.30;99.90
23681;DHT22;62915;50.832;4.462;2023-05-07T10:21:20;18.30;99.90
23681;DHT22;62915;50.832;4.462;2023-05-07T10:23:53;18.40;99.90
23681;DHT22;62915;50.832;4.462;2023-05-07T10:26:21;18.30;99.90
23681;DHT22;62915;50.832;4.462;2023-05-07T10:28:50;18.30;99.90
23681;DHT22;62915;50.832;4.462;2023-05-07T10:33:51;18.30;99.90
23681;DHT22;62915;50.832;4.462;2023-05-07T10:36:18;18.30;99.90
23681;DHT22;62915;50.832;4.462;2023-05-07T10:38:45;18.40;99.90
23681;DHT22;62915;50.832;4.462;2023-05-07T10:41:12;18.30;99.90
23681;DHT22;62915;50.832;4.462;2023-05-07T10:43:42;18.30;99.90
23681;DHT22;62915;50.832;4.462;2023-05-07T10:46:21;18.30;99.90
23681;DHT22;62915;50.832;4.462;2023-05-07T10:51:30;18.40;99.90
23681;DHT22;62915;50.832;4.462;2023-05-07T10:56:39;18.50;99.90
23681;DHT22;62915;50.832;4.462;2023-05-07T11:02:04;18.30;99.90
23681;DHT22;62915;50.832;4.462;2023-05-07T11:04:32;18.40;99.90
23681;DHT22;62915;50.832;4.462;2023-05-07T11:15:04;18.40;99.90
23681;DHT22;62915;50.832;4.462;2023-05-07T11:17:32;18.60;99.90
23681;DHT22;62915;50.832;4.462;2023-05-07T11:20:01;18.60;99.90
23681;DHT22;62915;50.832;4.462;2023-05-07T11:24:59;18.70;99.90
23681;DHT22;62915;50.832;4.462;2023-05-07T11:27:26;18.70;99.90
23681;DHT22;62915;50.832;4.462;2023-05-07T11:29:52;18.80;99.90
23681;DHT22;62915;50.832;4.462;2023-05-07T11:32:28;18.80;99.90
23681;DHT22;62915;50.832;4.462;2023-05-07T11:34:55;18.80;99.90
23681;DHT22;62915;50.832;4.462;2023-05-07T11:37:22;18.60;99.90
23681;DHT22;62915;50.832;4.462;2023-05-07T11:39:49;18.70;99.90
23681;DHT22;62915;50.832;4.462;2023-05-07T11:42:36;18.70;99.90
23681;DHT22;62915;50.832;4.462;2023-05-07T11:45:07;18.90;99.90
23681;DHT22;62915;50.832;4.462;2023-05-07T11:47:33;18.90;99.90
23681;DHT22;62915;50.832;4.462;2023-05-07T11:50:07;19.00;99.90
23681;DHT22;62915;50.832;4.462;2023-05-07T11:52:33;19.10;99.90
23681;DHT22;62915;50.832;4.462;2023-05-07T11:55:00;19.10;99.90
23681;DHT22;62915;50.832;4.462;2023-05-07T11:57:27;19.10;99.90
23681;DHT22;62915;50.832;4.462;2023-05-07T11:59:56;19.10;99.90
23681;DHT22;62915;50.832;4.462;2023-05-07T12:02:23;19.20;99.90
23681;DHT22;62915;50.832;4.462;2023-05-07T12:04:52;19.10;99.90
23681;DHT22;62915;50.832;4.462;2023-05-07T12:07:18;19.20;99.90
23681;DHT22;62915;50.832;4.462;2023-05-07T12:09:45;19.30;99.90
23681;DHT22;62915;50.832;4.462;2023-05-07T12:12:13;19.30;99.90
23681;DHT22;62915;50.832;4.462;2023-05-07T12:14:44;19.30;99.90
23681;DHT22;62915;50.832;4.462;2023-05-07T12:17:11;19.10;99.90
23681;DHT22;62915;50.832;4.462;2023-05-07T12:19:39;19.10;99.90
23681;DHT22;62915;50.832;4.462;2023-05-07T12:22:07;19.20;99.90
23681;DHT22;62915;50.832;4.462;2023-05-07T12:24:55;19.30;99.90
23681;DHT22;62915;50.832;4.462;2023-05-07T12:27:21;19.30;99.90
23681;DHT22;62915;50.832;4.462;2023-05-07T12:29:48;19.20;99.90
23681;DHT22;62915;50.832;4.462;2023-05-07T12:32:18;19.10;99.90
23681;DHT22;62915;50.832;4.462;2023-05-07T12:34:44;19.20;99.90
23681;DHT22;62915;50.832;4.462;2023-05-07T12:37:10;19.20;99.90
23681;DHT22;62915;50.832;4.462;2023-05-07T12:39:38;19.40;99.90
23681;DHT22;62915;50.832;4.462;2023-05-07T12:42:15;19.40;99.90
23681;DHT22;62915;50.832;4.462;2023-05-07T12:44:41;19.40;99.90
23681;DHT22;62915;50.832;4.462;2023-05-07T12:47:10;19.50;99.90
23681;DHT22;62915;50.832;4.462;2023-05-07T12:49:36;19.40;99.90
23681;DHT22;62915;50.832;4.462;2023-05-07T12:52:05;19.50;99.90
23681;DHT22;62915;50.832;4.462;2023-05-07T12:54:33;19.40;99.90
23681;DHT22;62915;50.832;4.462;2023-05-07T12:57:09;19.40;99.90
23681;DHT22;62915;50.832;4.462;2023-05-07T12:59:40;19.30;99.90
23681;DHT22;62915;50.832;4.462;2023-05-07T13:02:07;19.30;99.90
23681;DHT22;62915;50.832;4.462;2023-05-07T13:04:33;19.20;99.90
23681;DHT22;62915;50.832;4.462;2023-05-07T13:07:02;19.30;99.90
23681;DHT22;62915;50.832;4.462;2023-05-07T13:09:28;19.40;99.90
23681;DHT22;62915;50.832;4.462;2023-05-07T13:11:57;19.30;99.90
23681;DHT22;62915;50.832;4.462;2023-05-07T13:14:26;19.40;99.90
23681;DHT22;62915;50.832;4.462;2023-05-07T13:16:52;19.50;99.90
23681;DHT22;62915;50.832;4.462;2023-05-07T13:19:18;19.30;99.90
23681;DHT22;62915;50.832;4.462;2023-05-07T13:21:43;19.30;99.90
23681;DHT22;62915;50.832;4.462;2023-05-07T13:24:09;19.30;99.90
23681;DHT22;62915;50.832;4.462;2023-05-07T13:26:35;19.30;99.90
23681;DHT22;62915;50.832;4.462;2023-05-07T13:29:01;19.40;99.90
23681;DHT22;62915;50.832;4.462;2023-05-07T13:31:26;19.50;99.90
23681;DHT22;62915;50.832;4.462;2023-05-07T13:33:52;19.40;99.90
23681;DHT22;62915;50.832;4.462;2023-05-07T13:36:18;19.40;99.90
23681;DHT22;62915;50.832;4.462;2023-05-07T13:38:43;19.40;99.90
23681;DHT22;62915;50.832;4.462;2023-05-07T13:41:09;19.40;99.90
23681;DHT22;62915;50.832;4.462;2023-05-07T13:43:35;19.40;99.90
23681;DHT22;62915;50.832;4.462;2023-05-07T13:46:01;19.40;99.90
23681;DHT22;62915;50.832;4.462;2023-05-07T13:48:26;19.40;99.90
23681;DHT22;62915;50.832;4.462;2023-05-07T13:50:53;19.40;99.90
23681;DHT22;62915;50.832;4.462;2023-05-07T13:53:19;19.40;99.90
23681;DHT22;62915;50.832;4.462;2023-05-07T13:55:45;19.50;99.90
23681;DHT22;62915;50.832;4.462;2023-05-07T13:58:11;19.50;99.90
23681;DHT22;62915;50.832;4.462;2023-05-07T14:00:37;19.50;99.90
23681;DHT22;62915;50.832;4.462;2023-05-07T14:03:04;19.50;99.90
23681;DHT22;62915;50.832;4.462;2023-05-07T14:05:30;19.40;99.90
23681;DHT22;62915;50.832;4.462;2023-05-07T14:07:59;19.40;99.90
23681;DHT22;62915;50.832;4.462;2023-05-07T14:10:25;19.40;99.90
23681;DHT22;62915;50.832;4.462;2023-05-07T14:12:51;19.30;99.90
23681;DHT22;62915;50.832;4.462;2023-05-07T14:15:18;19.20;99.90
23681;DHT22;62915;50.832;4.462;2023-05-07T14:17:44;19.20;99.90
23681;DHT22;62915;50.832;4.462;2023-05-07T14:20:10;19.30;99.90
23681;DHT22;62915;50.832;4.462;2023-05-07T14:22:36;19.30;99.90
23681;DHT22;62915;50.832;4.462;2023-05-07T14:25:02;19.40;99.90
23681;DHT22;62915;50.832;4.462;2023-05-07T14:27:28;19.40;99.90
23681;DHT22;62915;50.832;4.462;2023-05-07T14:29:53;19.30;99.90
23681;DHT22;62915;50.832;4.462;2023-05-07T14:32:20;19.20;99.90
23681;DHT22;62915;50.832;4.462;2023-05-07T14:34:46;19.20;99.90
23681;DHT22;62915;50.832;4.462;2023-05-07T14:37:12;19.10;99.90
23681;DHT22;62915;50.832;4.462;2023-05-07T14:39:38;19.20;99.90
23681;DHT22;62915;50.832;4.462;2023-05-07T14:42:04;19.20;99.90
23681;DHT22;62915;50.832;4.462;2023-05-07T14:44:30;19.20;99.90
23681;DHT22;62915;50.832;4.462;2023-05-07T14:46:56;19.30;99.90
23681;DHT22;62915;50.832;4.462;2023-05-07T14:49:22;19.40;99.90
23681;DHT22;62915;50.832;4.462;2023-05-07T14:51:49;19.40;99.90
23681;DHT22;62915;50.832;4.462;2023-05-07T14:54:15;19.40;99.90
23681;DHT22;62915;50.832;4.462;2023-05-07T14:56:42;19.40;99.90
23681;DHT22;62915;50.832;4.462;2023-05-07T14:59:08;19.40;99.90
23681;DHT22;62915;50.832;4.462;2023-05-07T15:01:35;19.40;99.90
23681;DHT22;62915;50.832;4.462;2023-05-07T15:04:04;19.40;99.90
23681;DHT22;62915;50.832;4.462;2023-05-07T15:06:30;19.30;99.90
23681;DHT22;62915;50.832;4.462;2023-05-07T15:08:56;19.40;99.90
23681;DHT22;62915;50.832;4.462;2023-05-07T15:11:22;19.50;99.90
23681;DHT22;62915;50.832;4.462;2023-05-07T15:13:49;19.50;99.90
23681;DHT22;62915;50.832;4.462;2023-05-07T15:16:15;19.50;99.90
23681;DHT22;62915;50.832;4.462;2023-05-07T15:18:40;19.40;99.90
23681;DHT22;62915;50.832;4.462;2023-05-07T15:21:06;19.40;99.90
23681;DHT22;62915;50.832;4.462;2023-05-07T15:23:32;19.40;99.90
23681;DHT22;62915;50.832;4.462;2023-05-07T15:25:58;19.30;99.90
23681;DHT22;62915;50.832;4.462;2023-05-07T15:28:24;19.40;99.90
23681;DHT22;62915;50.832;4.462;2023-05-07T15:30:50;19.30;99.90
23681;DHT22;62915;50.832;4.462;2023-05-07T15:33:16;19.40;99.90
23681;DHT22;62915;50.832;4.462;2023-05-07T15:35:42;19.30;99.90
23681;DHT22;62915;50.832;4.462;2023-05-07T15:38:07;19.10;99.90
23681;DHT22;62915;50.832;4.462;2023-05-07T15:40:34;19.20;99.90
23681;DHT22;62915;50.832;4.462;2023-05-07T15:43:00;19.10;99.90
23681;DHT22;62915;50.832;4.462;2023-05-07T15:45:26;19.00;99.90
23681;DHT22;62915;50.832;4.462;2023-05-07T15:47:52;19.10;99.90
23681;DHT22;62915;50.832;4.462;2023-05-07T15:50:17;19.10;99.90